Terminal Aerodrome Forecast
Issued by NWS Portland, ME

Home | Current Version | Previous Version | Text Only | Print | Product List | Glossary On
Versions: 1 2 3 4 5 6 7 8 9 10 11 12 13 14 15 16 17 18 19
000
FTUS41 KGYX 281100
TAFPWM
TAF
KPWM 281120Z 2812/2912 00000KT 1/2SM FG OVC002
     FM281400 14008KT 4SM -SHRA BR OVC010
     FM281500 15009KT 2SM SHRA OVC012
     FM282300 20007KT P6SM -SHRA BKN018 OVC030
     FM290400 20006KT P6SM BKN040=

USA.gov is the U.S. government's official web portal to all federal, state and local government web resources and services.